createdAt,value
2019-05-22T00:00:27.632Z,94060.94
2019-05-22T00:02:58.622Z,94058.32
2019-05-22T00:05:32.215Z,94060.89
2019-05-22T00:08:02.551Z,94061.34
2019-05-22T00:10:33.373Z,94055.76
2019-05-22T00:13:04.028Z,94061.27
2019-05-22T00:15:33.477Z,94054.02
2019-05-22T00:18:03.095Z,94045.95
2019-05-22T00:20:31.752Z,94053.56
2019-05-22T00:23:04.607Z,94056.08
2019-05-22T00:25:35.911Z,94044.98
2019-05-22T00:28:06.706Z,94041.97
2019-05-22T00:30:37.369Z,94047.92
2019-05-22T00:33:07.737Z,94039.00
2019-05-22T00:35:38.042Z,94051.00
2019-05-22T00:38:08.850Z,94033.50
2019-05-22T00:40:46.824Z,94032.67
2019-05-22T00:43:21.064Z,94039.91
2019-05-22T00:45:52.255Z,94037.40
2019-05-22T00:48:22.701Z,94040.42
2019-05-22T00:51:04.505Z,94038.77
2019-05-22T00:53:39.183Z,94036.70
2019-05-22T00:56:13.538Z,94043.13
2019-05-22T00:58:44.282Z,94044.41
2019-05-22T01:01:23.921Z,94046.97
2019-05-22T01:03:54.106Z,94043.95
2019-05-22T01:06:24.312Z,94039.27
2019-05-22T01:08:54.846Z,94031.13
2019-05-22T01:11:25.551Z,94034.92
2019-05-22T01:13:54.673Z,94039.64
2019-05-22T01:16:25.155Z,94039.19
2019-05-22T01:18:53.725Z,94041.33
2019-05-22T01:21:25.066Z,94040.05
2019-05-22T01:23:55.552Z,94046.46
2019-05-22T01:26:26.305Z,94050.68
2019-05-22T01:28:56.775Z,94049.80
2019-05-22T01:31:33.196Z,94056.27
2019-05-22T01:34:05.877Z,94055.36
2019-05-22T01:36:36.367Z,94061.45
2019-05-22T01:39:20.940Z,94057.60
2019-05-22T01:41:51.676Z,94057.09
2019-05-22T01:44:21.161Z,94049.39
2019-05-22T01:46:51.765Z,94051.51
2019-05-22T01:49:21.937Z,94060.48
2019-05-22T01:51:51.341Z,94054.07
2019-05-22T01:54:22.038Z,94058.78
2019-05-22T01:56:51.625Z,94053.19
2019-05-22T01:59:22.762Z,94042.98
2019-05-22T02:01:52.762Z,94050.22
2019-05-22T02:04:22.034Z,94049.39
2019-05-22T02:06:51.236Z,94043.89
2019-05-22T02:09:31.587Z,94051.24
2019-05-22T02:12:16.628Z,94057.28
2019-05-22T02:14:50.030Z,94055.68
2019-05-22T02:17:22.598Z,94050.60
2019-05-22T02:19:52.099Z,94061.83
2019-05-22T02:22:22.135Z,94063.11
2019-05-22T02:24:52.072Z,94057.92
2019-05-22T02:27:21.394Z,94060.86
2019-05-22T02:29:52.367Z,94074.09
2019-05-22T02:32:23.543Z,94065.99
2019-05-22T02:34:52.181Z,94066.40
2019-05-22T02:37:22.292Z,94059.12
2019-05-22T02:39:53.263Z,94054.40
2019-05-22T02:42:26.110Z,94056.51
2019-05-22T02:44:55.660Z,94053.06
2019-05-22T02:47:25.635Z,94045.73
2019-05-22T02:49:56.087Z,94061.13
2019-05-22T02:52:26.290Z,94063.70
2019-05-22T02:54:55.625Z,94061.95
2019-05-22T02:57:25.109Z,94050.41
2019-05-22T02:59:53.602Z,94052.16
2019-05-22T03:02:24.420Z,94057.28
2019-05-22T03:05:00.432Z,94049.53
2019-05-22T03:07:31.828Z,94049.45
2019-05-22T03:10:03.778Z,94054.58
2019-05-22T03:12:34.670Z,94054.98
2019-05-22T03:15:05.659Z,94048.25
2019-05-22T03:17:35.235Z,94048.57
2019-05-22T03:20:17.387Z,94043.89
2019-05-22T03:23:01.216Z,94042.67
2019-05-22T03:25:32.641Z,94043.49
2019-05-22T03:28:02.960Z,94040.47
2019-05-22T03:30:34.759Z,94046.00
2019-05-22T03:33:06.441Z,94052.42
2019-05-22T03:35:38.681Z,94057.09
2019-05-22T03:38:08.060Z,94057.55
2019-05-22T03:40:38.094Z,94059.71
2019-05-22T03:43:15.869Z,94053.30
2019-05-22T03:45:45.977Z,94052.47
2019-05-22T03:48:15.054Z,94045.60
2019-05-22T03:50:44.337Z,94040.55
2019-05-22T03:53:19.018Z,94047.39
2019-05-22T03:55:49.242Z,94046.97
2019-05-22T03:58:18.735Z,94046.11
2019-05-22T04:00:49.733Z,94052.02
2019-05-22T04:03:19.749Z,94048.25
2019-05-22T04:05:50.250Z,94055.44
2019-05-22T04:08:19.954Z,94050.30
2019-05-22T04:10:57.098Z,94051.19
2019-05-22T04:13:26.490Z,94050.30
2019-05-22T04:15:55.800Z,94046.97
2019-05-22T04:18:26.305Z,94056.45
2019-05-22T04:20:58.083Z,94053.80
2019-05-22T04:23:26.721Z,94059.39
2019-05-22T04:25:57.900Z,94061.13
2019-05-22T04:28:30.241Z,94057.23
2019-05-22T04:31:00.254Z,94053.38
2019-05-22T04:33:31.044Z,94056.27
2019-05-22T04:36:01.833Z,94063.14
2019-05-22T04:38:31.528Z,94060.06
2019-05-22T04:41:02.557Z,94064.28
2019-05-22T04:43:34.178Z,94065.52
2019-05-22T04:46:05.443Z,94071.42
2019-05-22T04:48:35.229Z,94064.55
2019-05-22T04:51:22.827Z,94061.16
2019-05-22T04:53:51.497Z,94066.66
2019-05-22T04:56:20.902Z,94075.27
2019-05-22T04:58:49.539Z,94076.92
2019-05-22T05:01:21.511Z,94077.70
2019-05-22T05:03:51.219Z,94069.94
2019-05-22T05:06:21.868Z,94060.38
2019-05-22T05:08:52.533Z,94054.36
2019-05-22T05:11:21.862Z,94047.44
2019-05-22T05:13:50.455Z,94051.28
2019-05-22T05:16:19.276Z,94061.45
2019-05-22T05:18:48.600Z,94065.63
2019-05-22T05:21:17.212Z,94068.91
2019-05-22T05:23:46.513Z,94067.03
2019-05-22T05:26:15.515Z,94070.31
2019-05-22T05:28:45.319Z,94073.20
2019-05-22T05:31:14.724Z,94073.14
2019-05-22T05:34:02.547Z,94078.97
2019-05-22T05:36:33.313Z,94084.45
2019-05-22T05:39:05.896Z,94077.95
2019-05-22T05:41:34.360Z,94077.38
2019-05-22T05:44:04.735Z,94084.56
2019-05-22T05:46:33.338Z,94075.95
2019-05-22T05:49:02.776Z,94070.45
2019-05-22T05:51:33.982Z,94070.95
2019-05-22T05:54:06.647Z,94074.30
2019-05-22T05:56:37.481Z,94078.92
2019-05-22T05:59:10.715Z,94091.56
2019-05-22T06:01:41.157Z,94087.20
2019-05-22T06:04:10.230Z,94088.08
2019-05-22T06:06:41.743Z,94086.74
2019-05-22T06:09:17.175Z,94088.91
2019-05-22T06:11:49.059Z,94087.25
2019-05-22T06:14:20.945Z,94090.19
2019-05-22T06:16:54.110Z,94088.91
2019-05-22T06:19:23.961Z,94085.20
2019-05-22T06:21:53.474Z,94090.28
2019-05-22T06:24:35.022Z,94091.93
2019-05-22T06:27:15.577Z,94093.98
2019-05-22T06:29:57.905Z,94098.98
2019-05-22T06:32:52.456Z,94090.20
2019-05-22T06:35:21.761Z,94095.81
2019-05-22T06:37:59.307Z,94097.36
2019-05-22T06:40:28.315Z,94102.30
2019-05-22T06:43:21.888Z,94091.39
2019-05-22T06:45:50.612Z,94094.78
2019-05-22T06:48:19.525Z,94096.84
2019-05-22T06:50:49.397Z,94101.00
2019-05-22T06:53:18.685Z,94109.59
2019-05-22T06:55:47.495Z,94112.16
2019-05-22T06:58:16.973Z,94110.88
2019-05-22T07:00:46.374Z,94112.68
2019-05-22T07:03:15.583Z,94109.28
2019-05-22T07:05:45.359Z,94108.40
2019-05-22T07:08:14.849Z,94112.56
2019-05-22T07:10:44.726Z,94114.63
2019-05-22T07:13:14.302Z,94116.67
2019-05-22T07:15:44.317Z,94111.39
2019-05-22T07:18:15.355Z,94110.41
2019-05-22T07:20:47.511Z,94116.33
2019-05-22T07:23:25.099Z,94109.90
2019-05-22T07:25:54.168Z,94116.27
2019-05-22T07:28:24.325Z,94122.23
2019-05-22T07:30:53.886Z,94117.55
2019-05-22T07:33:23.798Z,94123.98
2019-05-22T07:36:08.576Z,94125.17
2019-05-22T07:38:23.616Z,94126.97
2019-05-22T07:40:53.036Z,94131.80
2019-05-22T07:43:22.216Z,94132.11
2019-05-22T07:45:52.683Z,94131.23
2019-05-22T07:48:24.497Z,94132.88
2019-05-22T07:50:56.303Z,94136.22
2019-05-22T07:53:26.900Z,94137.82
2019-05-22T07:55:57.923Z,94138.22
2019-05-22T07:58:29.848Z,94138.16
2019-05-22T08:01:00.766Z,94134.31
2019-05-22T08:03:32.044Z,94137.77
2019-05-22T08:06:03.093Z,94139.25
2019-05-22T08:08:33.264Z,94137.97
2019-05-22T08:11:02.361Z,94145.67
2019-05-22T08:13:32.536Z,94144.08
2019-05-22T08:16:02.685Z,94146.08
2019-05-22T08:18:33.348Z,94144.85
2019-05-22T08:21:03.084Z,94150.85
2019-05-22T08:23:32.598Z,94155.84
2019-05-22T08:26:01.215Z,94154.87
2019-05-22T08:28:32.008Z,94156.88
2019-05-22T08:31:01.674Z,94158.84
2019-05-22T08:33:31.770Z,94162.48
2019-05-22T08:36:04.896Z,94159.29
2019-05-22T08:38:35.379Z,94159.03
2019-05-22T08:41:06.981Z,94160.81
2019-05-22T08:44:03.334Z,94155.78
2019-05-22T08:46:08.430Z,94161.08
2019-05-22T08:48:46.638Z,94157.02
2019-05-22T08:51:10.512Z,94154.44
2019-05-22T08:53:47.374Z,94163.59
2019-05-22T08:56:11.220Z,94160.56
2019-05-22T08:58:40.414Z,94158.91
2019-05-22T09:01:10.979Z,94166.11
2019-05-22T09:03:40.246Z,94166.11
2019-05-22T09:06:09.489Z,94161.79
2019-05-22T09:08:38.069Z,94169.96
2019-05-22T09:11:07.250Z,94174.34
2019-05-22T09:13:36.263Z,94181.23
2019-05-22T09:16:05.576Z,94180.45
2019-05-22T09:18:34.539Z,94183.45
2019-05-22T09:21:03.689Z,94185.66
2019-05-22T09:23:33.830Z,94181.34
2019-05-22T09:26:03.647Z,94179.54
2019-05-22T09:28:34.880Z,94181.59
2019-05-22T09:31:03.544Z,94181.84
2019-05-22T09:33:33.121Z,94178.23
2019-05-22T09:36:02.169Z,94177.17
2019-05-22T09:38:31.348Z,94177.81
2019-05-22T09:41:00.932Z,94182.14
2019-05-22T09:43:29.776Z,94179.54
2019-05-22T09:45:58.307Z,94179.94
2019-05-22T09:48:27.660Z,94177.69
2019-05-22T09:50:56.966Z,94183.78
2019-05-22T09:53:26.264Z,94181.42
2019-05-22T09:55:55.252Z,94183.63
2019-05-22T09:58:24.563Z,94191.34
2019-05-22T10:00:53.166Z,94194.81
2019-05-22T10:03:22.485Z,94198.31
2019-05-22T10:05:51.624Z,94196.56
2019-05-22T10:08:21.066Z,94194.81
2019-05-22T10:10:50.375Z,94197.33
2019-05-22T10:13:19.380Z,94190.83
2019-05-22T10:15:48.012Z,94198.55
2019-05-22T10:18:17.023Z,94203.39
2019-05-22T10:20:47.026Z,94209.06
2019-05-22T10:23:16.545Z,94212.62
2019-05-22T10:25:45.612Z,94211.61
2019-05-22T10:28:15.502Z,94208.95
2019-05-22T10:30:44.536Z,94202.95
2019-05-22T10:33:13.158Z,94210.41
2019-05-22T10:35:42.449Z,94220.41
2019-05-22T10:38:11.625Z,94220.52
2019-05-22T10:40:40.548Z,94218.87
2019-05-22T10:43:09.873Z,94222.66
2019-05-22T10:45:39.044Z,94223.55
2019-05-22T10:48:08.095Z,94229.72
2019-05-22T10:50:36.739Z,94222.34
2019-05-22T10:53:05.698Z,94224.27
2019-05-22T10:55:35.945Z,94217.42
2019-05-22T10:58:05.601Z,94210.38
2019-05-22T11:00:35.098Z,94206.89
2019-05-22T11:03:04.065Z,94201.87
2019-05-22T11:05:33.744Z,94212.79
2019-05-22T11:08:02.722Z,94208.73
2019-05-22T11:10:33.251Z,94202.61
2019-05-22T11:13:02.565Z,94199.50
2019-05-22T11:15:31.242Z,94205.41
2019-05-22T11:18:00.023Z,94204.88
2019-05-22T11:20:30.999Z,94212.98
2019-05-22T11:23:00.067Z,94207.45
2019-05-22T11:25:29.344Z,94213.52
2019-05-22T11:27:58.741Z,94215.27
2019-05-22T11:30:28.786Z,94212.44
2019-05-22T11:32:58.292Z,94210.91
2019-05-22T11:35:28.365Z,94211.44
2019-05-22T11:37:57.109Z,94214.66
2019-05-22T11:40:26.387Z,94219.39
2019-05-22T11:42:55.664Z,94222.17
2019-05-22T11:45:25.286Z,94225.88
2019-05-22T11:47:54.629Z,94224.31
2019-05-22T11:50:25.205Z,94220.27
2019-05-22T11:52:54.076Z,94220.56
2019-05-22T11:55:42.175Z,94221.56
2019-05-22T11:57:53.776Z,94223.02
2019-05-22T12:00:24.763Z,94225.67
2019-05-22T12:02:55.880Z,94227.48
2019-05-22T12:05:25.759Z,94224.55
2019-05-22T12:07:54.779Z,94233.70
2019-05-22T12:10:25.564Z,94233.80
2019-05-22T12:12:56.198Z,94235.52
2019-05-22T12:15:27.904Z,94237.34
2019-05-22T12:17:57.031Z,94235.69
2019-05-22T12:20:26.273Z,94235.85
2019-05-22T12:22:55.644Z,94237.20
2019-05-22T12:25:25.749Z,94230.83
2019-05-22T12:27:55.122Z,94241.23
2019-05-22T12:30:25.021Z,94245.09
2019-05-22T12:32:53.767Z,94252.23
2019-05-22T12:35:22.418Z,94259.42
2019-05-22T12:37:51.651Z,94263.05
2019-05-22T12:40:21.429Z,94260.70
2019-05-22T12:42:51.948Z,94256.05
2019-05-22T12:45:30.014Z,94267.63
2019-05-22T12:47:59.904Z,94275.17
2019-05-22T12:50:30.982Z,94273.03
2019-05-22T12:53:04.123Z,94270.67
2019-05-22T12:55:33.946Z,94275.64
2019-05-22T12:58:03.605Z,94272.81
2019-05-22T13:00:34.923Z,94275.81
2019-05-22T13:03:06.025Z,94271.03
2019-05-22T13:05:36.996Z,94270.78
2019-05-22T13:08:07.077Z,94271.36
2019-05-22T13:10:36.747Z,94266.41
2019-05-22T13:13:06.053Z,94260.86
2019-05-22T13:15:37.780Z,94255.23
2019-05-22T13:18:08.296Z,94259.73
2019-05-22T13:20:43.199Z,94261.99
2019-05-22T13:23:15.855Z,94270.02
2019-05-22T13:25:46.331Z,94280.56
2019-05-22T13:28:17.174Z,94283.85
2019-05-22T13:30:49.966Z,94288.08
2019-05-22T13:33:22.305Z,94284.87
2019-05-22T13:35:52.117Z,94294.05
2019-05-22T13:38:21.137Z,94299.59
2019-05-22T13:40:51.447Z,94298.52
2019-05-22T13:43:20.469Z,94292.34
2019-05-22T13:45:49.973Z,94296.91
2019-05-22T13:48:18.581Z,94296.69
2019-05-22T13:50:48.328Z,94297.37
2019-05-22T13:53:19.401Z,94290.41
2019-05-22T13:55:48.379Z,94291.17
2019-05-22T13:58:20.565Z,94297.70
2019-05-22T14:00:50.353Z,94293.23
2019-05-22T14:03:20.837Z,94293.63
2019-05-22T14:05:50.109Z,94286.73
2019-05-22T14:08:19.488Z,94293.17
2019-05-22T14:10:50.011Z,94301.72
2019-05-22T14:13:19.348Z,94300.65
2019-05-22T14:15:54.962Z,94293.20
2019-05-22T14:18:19.708Z,94299.02
2019-05-22T14:20:49.153Z,94298.92
2019-05-22T14:23:18.045Z,94301.86
2019-05-22T14:25:48.033Z,94299.13
2019-05-22T14:28:17.219Z,94302.68
2019-05-22T14:30:46.505Z,94302.74
2019-05-22T14:33:16.380Z,94298.83
2019-05-22T14:35:48.767Z,94307.37
2019-05-22T14:38:16.590Z,94307.61
2019-05-22T14:40:45.755Z,94310.38
2019-05-22T14:43:14.567Z,94307.95
2019-05-22T14:45:45.415Z,94306.20
2019-05-22T14:48:15.594Z,94302.70
2019-05-22T14:50:44.753Z,94303.56
2019-05-22T14:53:16.011Z,94306.56
2019-05-22T14:55:46.510Z,94306.97
2019-05-22T14:58:16.231Z,94300.13
2019-05-22T15:00:45.786Z,94298.72
2019-05-22T15:03:14.494Z,94301.41
2019-05-22T15:05:43.771Z,94300.98
2019-05-22T15:08:12.487Z,94304.17
2019-05-22T15:10:41.391Z,94295.98
2019-05-22T15:13:11.106Z,94299.39
2019-05-22T15:15:40.886Z,94298.86
2019-05-22T15:18:11.212Z,94298.41
2019-05-22T15:20:42.058Z,94304.08
2019-05-22T15:23:11.521Z,94305.52
2019-05-22T15:25:40.588Z,94302.58
2019-05-22T15:28:09.950Z,94309.91
2019-05-22T15:30:39.488Z,94316.44
2019-05-22T15:33:09.520Z,94321.01
2019-05-22T15:35:38.736Z,94324.41
2019-05-22T15:38:11.023Z,94326.28
2019-05-22T15:40:40.410Z,94327.33
2019-05-22T15:43:12.093Z,94328.70
2019-05-22T15:45:42.398Z,94330.94
2019-05-22T15:48:17.675Z,94325.69
2019-05-22T15:50:53.017Z,94330.22
2019-05-22T15:53:24.105Z,94325.99
2019-05-22T15:55:54.490Z,94329.55
2019-05-22T15:58:25.446Z,94329.97
2019-05-22T16:00:56.294Z,94326.93
2019-05-22T16:03:28.357Z,94330.17
2019-05-22T16:05:58.340Z,94324.10
2019-05-22T16:08:29.985Z,94329.00
2019-05-22T16:11:00.808Z,94330.37
2019-05-22T16:13:33.232Z,94327.55
2019-05-22T16:16:03.922Z,94325.03
2019-05-22T16:18:38.567Z,94331.78
2019-05-22T16:21:11.386Z,94324.83
2019-05-22T16:23:40.889Z,94329.97
2019-05-22T16:26:11.940Z,94332.17
2019-05-22T16:28:42.569Z,94329.27
2019-05-22T16:31:12.824Z,94332.75
2019-05-22T16:33:43.819Z,94330.02
2019-05-22T16:36:14.396Z,94336.45
2019-05-22T16:38:44.490Z,94337.27
2019-05-22T16:41:13.792Z,94342.67
2019-05-22T16:43:49.417Z,94347.05
2019-05-22T16:46:16.981Z,94352.05
2019-05-22T16:48:48.817Z,94349.48
2019-05-22T16:51:18.532Z,94349.54
2019-05-22T16:53:56.332Z,94350.52
2019-05-22T16:56:26.655Z,94352.63
2019-05-22T16:58:56.048Z,94350.52
2019-05-22T17:01:27.203Z,94352.25
2019-05-22T17:03:58.631Z,94357.61
2019-05-22T17:06:27.468Z,94358.17
2019-05-22T17:08:59.262Z,94356.26
2019-05-22T17:11:29.139Z,94361.55
2019-05-22T17:14:01.507Z,94358.58
2019-05-22T17:16:34.077Z,94356.92
2019-05-22T17:19:25.258Z,94358.72
2019-05-22T17:21:37.382Z,94357.48
2019-05-22T17:24:08.565Z,94356.80
2019-05-22T17:26:37.648Z,94358.86
2019-05-22T17:29:07.197Z,94356.66
2019-05-22T17:31:37.109Z,94358.77
2019-05-22T17:34:08.433Z,94365.34
2019-05-22T17:36:38.713Z,94361.44
2019-05-22T17:39:11.416Z,94358.20
2019-05-22T17:41:42.517Z,94362.25
2019-05-22T17:44:13.426Z,94363.42
2019-05-22T17:46:45.114Z,94364.77
2019-05-22T17:49:14.161Z,94370.73
2019-05-22T17:51:44.063Z,94370.25
2019-05-22T17:54:12.986Z,94373.89
2019-05-22T17:56:42.301Z,94379.63
2019-05-22T17:59:10.913Z,94384.42
2019-05-22T18:01:39.520Z,94385.28
2019-05-22T18:04:08.357Z,94386.17
2019-05-22T18:06:37.424Z,94389.20
2019-05-22T18:09:09.102Z,94390.21
2019-05-22T18:11:37.721Z,94389.84
2019-05-22T18:14:07.730Z,94398.38
2019-05-22T18:16:37.318Z,94395.86
2019-05-22T18:19:07.888Z,94402.75
2019-05-22T18:21:37.081Z,94405.83
2019-05-22T18:24:07.080Z,94402.02
2019-05-22T18:26:36.182Z,94407.63
2019-05-22T18:29:05.733Z,94408.58
2019-05-22T18:31:34.922Z,94413.27
2019-05-22T18:34:04.985Z,94416.30
2019-05-22T18:36:33.603Z,94421.48
2019-05-22T18:39:02.138Z,94424.94
2019-05-22T18:41:30.992Z,94424.11
2019-05-22T18:44:00.752Z,94425.85
2019-05-22T18:46:29.405Z,94419.42
2019-05-22T18:48:58.028Z,94419.07
2019-05-22T18:51:26.947Z,94428.52
2019-05-22T18:53:55.761Z,94429.44
2019-05-22T18:56:25.919Z,94424.75
2019-05-22T18:58:55.135Z,94433.75
2019-05-22T19:01:24.120Z,94436.31
2019-05-22T19:03:52.696Z,94436.37
2019-05-22T19:06:30.246Z,94436.82
2019-05-22T19:08:52.543Z,94436.82
2019-05-22T19:11:21.158Z,94440.73
2019-05-22T19:13:49.881Z,94444.95
2019-05-22T19:16:18.564Z,94446.38
2019-05-22T19:18:47.179Z,94443.43
2019-05-22T19:21:16.686Z,94444.72
2019-05-22T19:23:45.157Z,94441.69
2019-05-22T19:26:13.922Z,94442.97
2019-05-22T19:28:44.449Z,94441.23
2019-05-22T19:31:13.398Z,94447.66
2019-05-22T19:33:44.119Z,94442.56
2019-05-22T19:36:12.872Z,94441.28
2019-05-22T19:38:41.827Z,94442.20
2019-05-22T19:41:10.426Z,94440.45
2019-05-22T19:43:39.711Z,94448.22
2019-05-22T19:46:08.770Z,94438.39
2019-05-22T19:48:37.452Z,94447.47
2019-05-22T19:51:07.670Z,94450.09
2019-05-22T19:53:36.510Z,94448.02
2019-05-22T19:56:06.780Z,94449.35
2019-05-22T19:58:36.773Z,94443.84
2019-05-22T20:01:06.596Z,94445.75
2019-05-22T20:03:35.428Z,94439.84
2019-05-22T20:06:05.517Z,94442.45
2019-05-22T20:08:36.765Z,94442.63
2019-05-22T20:11:06.151Z,94440.56
2019-05-22T20:13:35.392Z,94442.41
2019-05-22T20:16:04.906Z,94445.50
2019-05-22T20:18:35.934Z,94441.70
2019-05-22T20:21:04.504Z,94443.48
2019-05-22T20:23:36.584Z,94444.03
2019-05-22T20:26:05.202Z,94430.87
2019-05-22T20:28:35.095Z,94435.67
2019-05-22T20:31:04.078Z,94441.31
2019-05-22T20:33:33.057Z,94434.61
2019-05-22T20:36:01.770Z,94436.06
2019-05-22T20:38:31.338Z,94438.71
2019-05-22T20:41:00.539Z,94436.19
2019-05-22T20:43:31.251Z,94437.59
2019-05-22T20:46:02.012Z,94437.65
2019-05-22T20:48:30.631Z,94438.19
2019-05-22T20:51:02.114Z,94437.81
2019-05-22T20:53:33.021Z,94440.05
2019-05-22T20:56:01.932Z,94439.22
2019-05-22T20:58:32.434Z,94440.17
2019-05-22T21:01:01.658Z,94437.70
2019-05-22T21:03:31.650Z,94444.12
2019-05-22T21:06:01.049Z,94438.61
2019-05-22T21:08:30.999Z,94442.13
2019-05-22T21:11:01.725Z,94444.28
2019-05-22T21:13:31.972Z,94445.61
2019-05-22T21:16:02.334Z,94447.34
2019-05-22T21:18:45.113Z,94438.86
2019-05-22T21:21:14.090Z,94444.49
2019-05-22T21:23:44.167Z,94444.12
2019-05-22T21:26:13.446Z,94447.06
2019-05-22T21:28:43.887Z,94450.98
2019-05-22T21:31:14.566Z,94450.98
2019-05-22T21:33:44.453Z,94447.97
2019-05-22T21:36:15.845Z,94452.11
2019-05-22T21:38:45.037Z,94453.77
2019-05-22T21:41:14.250Z,94456.74
2019-05-22T21:43:43.446Z,94451.20
2019-05-22T21:46:12.455Z,94455.50
2019-05-22T21:48:41.735Z,94455.05
2019-05-22T21:51:10.748Z,94448.18
2019-05-22T21:53:40.032Z,94448.13
2019-05-22T21:56:11.940Z,94447.26
2019-05-22T21:58:43.611Z,94446.40
2019-05-22T22:01:14.851Z,94447.30
2019-05-22T22:03:54.394Z,94446.52
2019-05-22T22:06:23.265Z,94450.37
2019-05-22T22:08:52.782Z,94449.58
2019-05-22T22:11:24.455Z,94454.34
2019-05-22T22:13:55.409Z,94452.56
2019-05-22T22:16:24.331Z,94450.37
2019-05-22T22:18:53.582Z,94446.97
2019-05-22T22:21:23.264Z,94451.66
2019-05-22T22:23:53.733Z,94441.43
2019-05-22T22:26:25.761Z,94438.44
2019-05-22T22:28:53.563Z,94443.17
2019-05-22T22:31:23.814Z,94442.71
2019-05-22T22:33:55.531Z,94435.88
2019-05-22T22:36:24.810Z,94441.43
2019-05-22T22:38:54.268Z,94447.02
2019-05-22T22:41:23.488Z,94440.64
2019-05-22T22:43:52.812Z,94433.85
2019-05-22T22:46:31.724Z,94437.70
2019-05-22T22:49:02.467Z,94440.72
2019-05-22T22:51:32.046Z,94436.91
2019-05-22T22:54:04.034Z,94432.19
2019-05-22T22:56:32.892Z,94437.75
2019-05-22T22:59:03.596Z,94435.18
2019-05-22T23:01:34.094Z,94435.18
2019-05-22T23:04:05.603Z,94439.15
2019-05-22T23:06:36.224Z,94436.34
2019-05-22T23:09:07.292Z,94441.09
2019-05-22T23:11:39.022Z,94435.58
2019-05-22T23:14:08.264Z,94435.75
2019-05-22T23:16:37.656Z,94440.47
2019-05-22T23:19:16.909Z,94439.52
2019-05-22T23:21:45.542Z,94435.67
2019-05-22T23:24:14.508Z,94440.80
2019-05-22T23:26:43.685Z,94441.75
2019-05-22T23:29:13.048Z,94438.31
2019-05-22T23:31:42.282Z,94431.03
2019-05-22T23:34:11.634Z,94430.25
2019-05-22T23:36:40.701Z,94434.17
2019-05-22T23:39:15.417Z,94432.94
2019-05-22T23:41:46.869Z,94425.28
2019-05-22T23:44:18.548Z,94424.95
2019-05-22T23:46:47.922Z,94430.98
2019-05-22T23:49:17.220Z,94423.78
2019-05-22T23:51:46.640Z,94430.20
2019-05-22T23:54:17.320Z,94427.34
2019-05-22T23:56:45.925Z,94426.97
2019-05-22T23:59:17.563Z,94423.98
